createdAt,value
2023-03-16T00:00:18.952Z,3.40
2023-03-16T00:02:46.214Z,2.85
2023-03-16T00:05:14.675Z,3.00
2023-03-16T00:07:42.501Z,3.10
2023-03-16T00:10:12.438Z,3.72
2023-03-16T00:12:39.939Z,3.40
2023-03-16T00:15:07.704Z,3.25
2023-03-16T00:17:34.779Z,3.00
2023-03-16T00:20:07.030Z,3.30
2023-03-16T00:22:34.624Z,3.35
2023-03-16T00:25:02.569Z,2.72
2023-03-16T00:27:29.582Z,3.47
2023-03-16T00:29:57.172Z,2.80
2023-03-16T00:32:26.958Z,2.40
2023-03-16T00:34:54.392Z,3.42
2023-03-16T00:37:23.518Z,3.92
2023-03-16T00:39:51.682Z,3.97
2023-03-16T00:42:20.248Z,4.18
2023-03-16T00:44:47.366Z,3.10
2023-03-16T00:47:14.905Z,4.25
2023-03-16T00:49:43.772Z,2.85
2023-03-16T00:52:15.316Z,4.50
2023-03-16T00:54:47.222Z,4.63
2023-03-16T00:57:18.286Z,4.95
2023-03-16T00:59:46.533Z,5.40
2023-03-16T01:02:15.608Z,4.45
2023-03-16T01:04:43.796Z,4.13
2023-03-16T01:07:14.024Z,4.43
2023-03-16T01:09:42.297Z,4.30
2023-03-16T01:12:19.412Z,4.88
2023-03-16T01:14:47.626Z,3.53
2023-03-16T01:17:17.207Z,3.60
2023-03-16T01:19:45.183Z,3.03
2023-03-16T01:22:12.504Z,3.92
2023-03-16T01:24:40.877Z,3.58
2023-03-16T01:27:08.967Z,3.05
2023-03-16T01:29:36.747Z,3.35
2023-03-16T01:32:05.123Z,2.85
2023-03-16T01:34:32.535Z,2.80
2023-03-16T01:37:00.580Z,3.38
2023-03-16T01:39:27.819Z,3.03
2023-03-16T01:41:54.912Z,3.25
2023-03-16T01:44:30.267Z,3.90
2023-03-16T01:46:57.903Z,2.50
2023-03-16T01:49:28.727Z,3.33
2023-03-16T01:52:12.658Z,2.60
2023-03-16T01:54:50.369Z,3.38
2023-03-16T01:57:23.843Z,2.60
2023-03-16T01:59:55.461Z,3.05
2023-03-16T02:02:25.392Z,2.60
2023-03-16T02:04:56.694Z,3.63
2023-03-16T02:07:27.409Z,3.03
2023-03-16T02:09:58.816Z,3.15
2023-03-16T02:12:25.886Z,2.50
2023-03-16T02:14:53.610Z,2.90
2023-03-16T02:17:24.025Z,2.67
2023-03-16T02:19:56.716Z,2.33
2023-03-16T02:22:25.110Z,3.22
2023-03-16T02:24:53.101Z,4.30
2023-03-16T02:27:31.383Z,3.22
2023-03-16T02:30:11.654Z,2.53
2023-03-16T02:32:40.205Z,2.85
2023-03-16T02:35:08.981Z,2.50
2023-03-16T02:37:36.041Z,3.15
2023-03-16T02:40:20.846Z,3.40
2023-03-16T02:43:17.378Z,3.30
2023-03-16T02:45:52.490Z,2.97
2023-03-16T02:48:32.286Z,3.08
2023-03-16T02:50:59.480Z,3.15
2023-03-16T02:53:26.545Z,3.40
2023-03-16T02:55:53.617Z,3.33
2023-03-16T02:58:21.767Z,3.55
2023-03-16T03:00:48.842Z,4.70
2023-03-16T03:03:15.890Z,3.53
2023-03-16T03:05:43.002Z,3.80
2023-03-16T03:08:10.167Z,2.78
2023-03-16T03:10:37.165Z,3.13
2023-03-16T03:13:04.471Z,3.17
2023-03-16T03:15:31.827Z,3.47
2023-03-16T03:17:58.890Z,2.53
2023-03-16T03:20:26.163Z,2.78
2023-03-16T03:22:53.485Z,2.70
2023-03-16T03:25:21.902Z,4.13
2023-03-16T03:27:50.538Z,3.65
2023-03-16T03:30:20.608Z,4.28
2023-03-16T03:32:47.935Z,2.75
2023-03-16T03:35:16.414Z,3.10
2023-03-16T03:37:44.651Z,2.83
2023-03-16T03:40:14.035Z,3.67
2023-03-16T03:42:43.060Z,3.13
2023-03-16T03:45:14.165Z,2.45
2023-03-16T03:47:43.335Z,2.45
2023-03-16T03:50:14.176Z,2.83
2023-03-16T03:52:41.450Z,2.60
2023-03-16T03:55:09.319Z,3.00
2023-03-16T03:57:36.524Z,2.83
2023-03-16T04:00:13.870Z,3.13
2023-03-16T04:02:41.223Z,3.35
2023-03-16T04:05:08.783Z,3.78
2023-03-16T04:07:35.855Z,2.75
2023-03-16T04:10:03.258Z,3.22
2023-03-16T04:12:30.269Z,3.53
2023-03-16T04:14:57.388Z,3.63
2023-03-16T04:17:24.590Z,3.53
2023-03-16T04:19:52.178Z,3.67
2023-03-16T04:22:19.219Z,3.90
2023-03-16T04:24:46.268Z,3.30
2023-03-16T04:27:13.378Z,4.22
2023-03-16T04:29:40.492Z,4.22
2023-03-16T04:32:07.952Z,3.78
2023-03-16T04:34:35.057Z,3.20
2023-03-16T04:37:02.443Z,3.67
2023-03-16T04:39:29.486Z,4.45
2023-03-16T04:41:56.473Z,3.80
2023-03-16T04:44:25.849Z,5.15
2023-03-16T04:46:53.023Z,5.82
2023-03-16T04:49:20.029Z,5.28
2023-03-16T04:51:47.345Z,6.35
2023-03-16T04:54:14.335Z,5.70
2023-03-16T04:56:42.200Z,5.38
2023-03-16T04:59:09.573Z,5.22
2023-03-16T05:01:38.209Z,4.85
2023-03-16T05:04:05.471Z,4.65
2023-03-16T05:06:32.494Z,4.25
2023-03-16T05:09:00.833Z,4.50
2023-03-16T05:11:28.388Z,4.45
2023-03-16T05:13:55.709Z,4.05
2023-03-16T05:16:22.800Z,4.28
2023-03-16T05:18:50.074Z,4.00
2023-03-16T05:21:17.138Z,4.20
2023-03-16T05:23:44.331Z,4.38
2023-03-16T05:26:13.193Z,4.30
2023-03-16T05:28:40.759Z,3.20
2023-03-16T05:31:08.383Z,5.28
2023-03-16T05:33:35.930Z,4.45
2023-03-16T05:36:03.588Z,4.57
2023-03-16T05:38:32.249Z,4.05
2023-03-16T05:41:03.392Z,4.00
2023-03-16T05:43:32.530Z,4.38
2023-03-16T05:45:59.592Z,4.95
2023-03-16T05:48:26.731Z,4.10
2023-03-16T05:50:53.913Z,4.07
2023-03-16T05:53:23.258Z,3.80
2023-03-16T05:55:58.938Z,4.10
2023-03-16T05:58:27.636Z,4.82
2023-03-16T06:00:55.677Z,4.60
2023-03-16T06:03:22.895Z,3.78
2023-03-16T06:05:50.047Z,3.30
2023-03-16T06:08:17.453Z,4.22
2023-03-16T06:10:48.023Z,4.45
2023-03-16T06:13:15.344Z,4.05
2023-03-16T06:15:44.110Z,3.70
2023-03-16T06:18:11.282Z,4.13
2023-03-16T06:20:38.607Z,3.83
2023-03-16T06:23:05.634Z,4.53
2023-03-16T06:25:32.648Z,4.22
2023-03-16T06:27:59.695Z,5.68
2023-03-16T06:30:27.020Z,4.07
2023-03-16T06:32:54.276Z,4.30
2023-03-16T06:35:21.398Z,3.17
2023-03-16T06:37:48.443Z,2.95
2023-03-16T06:40:15.607Z,3.75
2023-03-16T06:42:45.680Z,2.97
2023-03-16T06:45:17.734Z,3.03
2023-03-16T06:47:45.380Z,2.92
2023-03-16T06:50:12.575Z,4.03
2023-03-16T06:52:39.836Z,3.13
2023-03-16T06:55:08.077Z,3.08
2023-03-16T06:57:35.571Z,3.97
2023-03-16T07:00:05.748Z,3.25
2023-03-16T07:02:37.064Z,3.00
2023-03-16T07:05:31.708Z,3.80
2023-03-16T07:07:59.904Z,3.42
2023-03-16T07:10:27.852Z,4.15
2023-03-16T07:12:55.401Z,3.72
2023-03-16T07:15:23.109Z,3.60
2023-03-16T07:17:50.156Z,4.82
2023-03-16T07:20:18.069Z,4.32
2023-03-16T07:22:45.499Z,5.10
2023-03-16T07:25:13.971Z,3.80
2023-03-16T07:27:43.598Z,4.22
2023-03-16T07:30:14.124Z,3.75
2023-03-16T07:32:42.471Z,3.78
2023-03-16T07:35:11.544Z,3.28
2023-03-16T07:37:38.884Z,3.47
2023-03-16T07:40:09.129Z,3.58
2023-03-16T07:42:37.267Z,3.60
2023-03-16T07:45:05.559Z,3.80
2023-03-16T07:47:33.765Z,4.00
2023-03-16T07:50:01.465Z,3.63
2023-03-16T07:52:28.844Z,3.30
2023-03-16T07:54:55.882Z,3.55
2023-03-16T07:57:23.017Z,3.20
2023-03-16T07:59:50.092Z,8.63
2023-03-16T08:02:19.316Z,4.72
2023-03-16T08:04:47.011Z,2.90
2023-03-16T08:07:15.566Z,3.45
2023-03-16T08:09:42.882Z,2.90
2023-03-16T08:12:10.262Z,11.60
2023-03-16T08:14:37.730Z,5.07
2023-03-16T08:17:07.437Z,2.58
2023-03-16T08:19:34.740Z,2.95
2023-03-16T08:22:02.256Z,5.00
2023-03-16T08:24:29.758Z,7.25
2023-03-16T08:27:01.584Z,3.88
2023-03-16T08:29:28.561Z,3.45
2023-03-16T08:31:59.976Z,2.80
2023-03-16T08:34:27.620Z,3.78
2023-03-16T08:36:55.333Z,3.38
2023-03-16T08:39:22.930Z,4.15
2023-03-16T08:41:50.010Z,2.88
2023-03-16T08:44:17.567Z,2.42
2023-03-16T08:46:44.811Z,3.17
2023-03-16T08:49:13.695Z,4.07
2023-03-16T08:51:40.697Z,3.25
2023-03-16T08:54:07.854Z,2.90
2023-03-16T08:56:34.896Z,2.90
2023-03-16T08:59:01.958Z,3.20
2023-03-16T09:01:29.543Z,2.75
2023-03-16T09:03:56.631Z,2.72
2023-03-16T09:06:24.585Z,2.13
2023-03-16T09:08:51.724Z,2.85
2023-03-16T09:11:19.767Z,1.70
2023-03-16T09:13:47.599Z,1.77
2023-03-16T09:16:16.159Z,1.98
2023-03-16T09:18:43.505Z,1.95
2023-03-16T09:21:13.853Z,1.67
2023-03-16T09:23:42.956Z,1.45
2023-03-16T09:26:12.492Z,2.10
2023-03-16T09:28:42.324Z,1.50
2023-03-16T09:31:16.652Z,3.20
2023-03-16T09:33:43.767Z,2.30
2023-03-16T09:36:14.133Z,1.98
2023-03-16T09:38:42.382Z,1.92
2023-03-16T09:41:22.389Z,3.35
2023-03-16T09:44:02.957Z,1.40
2023-03-16T09:46:36.257Z,2.17
2023-03-16T09:49:03.792Z,1.83
2023-03-16T09:51:31.106Z,2.10
2023-03-16T09:54:01.724Z,2.03
2023-03-16T09:57:14.868Z,2.75
2023-03-16T09:59:42.146Z,2.53
2023-03-16T10:03:05.333Z,8.23
2023-03-16T10:05:33.963Z,5.35
2023-03-16T10:08:12.721Z,5.07
2023-03-16T10:10:58.415Z,12.45
2023-03-16T10:13:48.409Z,9.85
2023-03-16T10:16:23.516Z,6.80
2023-03-16T10:18:58.388Z,4.30
2023-03-16T10:21:25.410Z,4.85
2023-03-16T10:23:55.936Z,2.88
2023-03-16T10:26:29.686Z,3.88
2023-03-16T10:28:56.771Z,3.17
2023-03-16T10:31:24.436Z,2.50
2023-03-16T10:33:58.477Z,4.40
2023-03-16T10:36:30.312Z,3.20
2023-03-16T10:39:00.565Z,5.03
2023-03-16T10:41:36.646Z,2.13
2023-03-16T10:44:12.408Z,3.72
2023-03-16T10:46:48.647Z,6.05
2023-03-16T10:49:36.065Z,3.92
2023-03-16T10:52:31.224Z,6.22
2023-03-16T10:54:59.746Z,7.28
2023-03-16T10:57:30.791Z,3.35
2023-03-16T11:00:14.031Z,3.35
2023-03-16T11:02:41.452Z,1.58
2023-03-16T11:05:34.622Z,3.03
2023-03-16T11:08:18.721Z,2.22
2023-03-16T11:10:55.665Z,2.33
2023-03-16T11:13:34.906Z,3.53
2023-03-16T11:16:14.288Z,2.80
2023-03-16T11:18:47.672Z,2.08
2023-03-16T11:21:21.068Z,1.30
2023-03-16T11:23:51.267Z,1.30
2023-03-16T11:26:40.772Z,1.70
2023-03-16T11:29:22.211Z,1.27
2023-03-16T11:31:55.284Z,1.23
2023-03-16T11:34:30.998Z,1.17
2023-03-16T11:37:04.467Z,0.88
2023-03-16T11:43:30.506Z,0.63
2023-03-16T11:46:14.067Z,0.90
2023-03-16T11:49:06.129Z,1.05
2023-03-16T11:52:01.472Z,0.75
2023-03-16T11:54:52.799Z,0.70
2023-03-16T11:57:19.811Z,0.60
2023-03-16T12:00:25.744Z,0.90
2023-03-16T12:03:47.683Z,5.13
2023-03-16T12:06:35.607Z,1.30
2023-03-16T12:09:21.167Z,3.08
2023-03-16T12:11:52.420Z,7.40
2023-03-16T12:14:28.318Z,1.30
2023-03-16T12:17:02.496Z,4.45
2023-03-16T12:19:47.564Z,3.03
2023-03-16T12:22:30.196Z,3.97
2023-03-16T12:24:57.182Z,3.78
2023-03-16T12:27:31.726Z,4.03
2023-03-16T12:30:30.725Z,5.80
2023-03-16T12:33:08.677Z,4.88
2023-03-16T12:35:54.557Z,4.97
2023-03-16T12:38:39.677Z,4.43
2023-03-16T12:41:10.265Z,1.63
2023-03-16T12:43:42.984Z,5.93
2023-03-16T12:46:19.714Z,2.72
2023-03-16T12:48:51.601Z,3.33
2023-03-16T12:51:18.626Z,12.00
2023-03-16T12:53:53.198Z,10.73
2023-03-16T12:56:30.111Z,7.65
2023-03-16T12:59:00.662Z,2.78
2023-03-16T13:01:31.222Z,4.82
2023-03-16T13:04:09.107Z,2.10
2023-03-16T13:06:37.288Z,4.75
2023-03-16T13:09:07.214Z,2.33
2023-03-16T13:11:45.776Z,6.47
2023-03-16T13:14:40.790Z,2.47
2023-03-16T13:17:17.342Z,5.50
2023-03-16T13:19:57.716Z,1.83
2023-03-16T13:22:30.696Z,4.65
2023-03-16T13:25:18.693Z,4.82
2023-03-16T13:27:58.047Z,5.85
2023-03-16T13:30:34.287Z,2.33
2023-03-16T13:33:21.026Z,0.55
2023-03-16T13:35:51.201Z,1.25
2023-03-16T13:38:22.545Z,2.17
2023-03-16T13:40:56.876Z,1.95
2023-03-16T13:43:29.022Z,1.42
2023-03-16T13:45:56.507Z,1.23
2023-03-16T13:48:24.342Z,0.55
2023-03-16T13:50:52.838Z,0.75
2023-03-16T13:53:31.522Z,0.60
2023-03-16T13:56:02.090Z,1.00
2023-03-16T13:58:35.248Z,0.80
2023-03-16T14:01:11.833Z,0.98
2023-03-16T14:03:42.700Z,1.75
2023-03-16T14:06:26.629Z,1.08
2023-03-16T14:08:58.494Z,1.10
2023-03-16T14:11:26.967Z,0.80
2023-03-16T14:13:56.275Z,0.80
2023-03-16T14:16:26.322Z,1.17
2023-03-16T14:19:17.337Z,0.82
2023-03-16T14:21:46.362Z,2.10
2023-03-16T14:24:29.933Z,3.25
2023-03-16T14:26:58.181Z,1.15
2023-03-16T14:29:30.615Z,1.25
2023-03-16T14:32:00.005Z,1.15
2023-03-16T14:34:31.615Z,1.20
2023-03-16T14:37:11.733Z,1.45
2023-03-16T14:39:40.617Z,1.20
2023-03-16T14:42:18.897Z,1.23
2023-03-16T14:44:46.689Z,1.25
2023-03-16T14:47:23.002Z,0.93
2023-03-16T14:49:50.962Z,0.70
2023-03-16T14:52:26.264Z,1.15
2023-03-16T14:54:55.520Z,0.60
2023-03-16T14:57:22.752Z,0.70
2023-03-16T14:59:49.900Z,1.10
2023-03-16T15:02:18.854Z,0.80
2023-03-16T15:04:47.526Z,0.70
2023-03-16T15:07:25.142Z,0.85
2023-03-16T15:09:54.430Z,0.80
2023-03-16T15:12:24.610Z,0.90
2023-03-16T15:15:10.735Z,1.08
2023-03-16T15:17:37.819Z,0.80
2023-03-16T15:20:05.355Z,1.08
2023-03-16T15:22:38.196Z,0.90
2023-03-16T15:25:35.767Z,1.00
2023-03-16T15:28:20.992Z,2.65
2023-03-16T15:30:51.269Z,5.10
2023-03-16T15:33:18.740Z,6.40
2023-03-16T15:35:47.723Z,3.22
2023-03-16T15:38:20.368Z,1.88
2023-03-16T15:40:48.149Z,5.75
2023-03-16T15:43:20.963Z,3.13
2023-03-16T15:45:48.208Z,1.83
2023-03-16T15:48:21.671Z,1.33
2023-03-16T15:50:53.681Z,2.50
2023-03-16T15:53:35.581Z,1.02
2023-03-16T15:56:06.460Z,1.60
2023-03-16T15:58:36.289Z,1.80
2023-03-16T16:01:05.268Z,2.55
2023-03-16T16:03:34.019Z,3.10
2023-03-16T16:06:01.998Z,1.42
2023-03-16T16:08:29.121Z,2.53
2023-03-16T16:10:56.645Z,1.15
2023-03-16T16:13:43.147Z,2.13
2023-03-16T16:16:16.716Z,1.17
2023-03-16T16:18:44.777Z,0.80
2023-03-16T16:21:28.061Z,1.30
2023-03-16T16:23:55.395Z,1.67
2023-03-16T16:26:27.886Z,1.90
2023-03-16T16:28:59.287Z,1.30
2023-03-16T16:31:30.550Z,1.23
2023-03-16T16:33:59.004Z,0.85
2023-03-16T16:36:26.203Z,1.42
2023-03-16T16:38:57.009Z,0.88
2023-03-16T16:41:28.366Z,1.30
2023-03-16T16:43:57.093Z,1.88
2023-03-16T16:46:26.502Z,5.07
2023-03-16T16:48:59.544Z,6.47
2023-03-16T16:51:29.583Z,6.53
2023-03-16T16:53:58.868Z,6.55
2023-03-16T16:56:31.938Z,9.27
2023-03-16T16:59:02.412Z,4.57
2023-03-16T17:01:35.211Z,2.65
2023-03-16T17:04:02.965Z,4.25
2023-03-16T17:06:30.471Z,2.63
2023-03-16T17:08:57.601Z,2.08
2023-03-16T17:11:31.143Z,3.38
2023-03-16T17:14:00.807Z,1.70
2023-03-16T17:16:31.737Z,3.40
2023-03-16T17:18:59.598Z,2.13
2023-03-16T17:21:29.860Z,1.52
2023-03-16T17:23:57.562Z,1.70
2023-03-16T17:26:27.962Z,2.22
2023-03-16T17:29:01.618Z,3.08
2023-03-16T17:31:36.956Z,1.33
2023-03-16T17:34:16.795Z,1.63
2023-03-16T17:36:44.763Z,5.63
2023-03-16T17:39:23.539Z,4.35
2023-03-16T17:41:56.056Z,4.57
2023-03-16T17:44:24.780Z,3.47
2023-03-16T17:46:53.297Z,3.42
2023-03-16T17:49:22.167Z,4.68
2023-03-16T17:51:49.275Z,8.63
2023-03-16T17:54:16.507Z,2.08
2023-03-16T17:56:44.164Z,2.20
2023-03-16T17:59:19.924Z,2.47
2023-03-16T18:01:48.234Z,2.55
2023-03-16T18:04:24.111Z,2.85
2023-03-16T18:06:51.601Z,2.95
2023-03-16T18:09:20.344Z,1.70
2023-03-16T18:11:50.043Z,1.98
2023-03-16T18:14:35.498Z,1.48
2023-03-16T18:17:30.028Z,5.95
2023-03-16T18:19:57.816Z,3.38
2023-03-16T18:22:25.403Z,4.32
2023-03-16T18:24:53.956Z,2.58
2023-03-16T18:27:22.372Z,1.42
2023-03-16T18:29:49.400Z,1.65
2023-03-16T18:32:22.977Z,1.77
2023-03-16T18:34:52.985Z,2.17
2023-03-16T18:37:23.130Z,3.25
2023-03-16T18:39:51.956Z,3.83
2023-03-16T18:42:21.726Z,7.43
2023-03-16T18:44:49.540Z,9.80
2023-03-16T18:47:18.868Z,8.23
2023-03-16T18:49:49.290Z,5.03
2023-03-16T18:52:24.583Z,7.93
2023-03-16T18:54:53.295Z,5.00
2023-03-16T18:57:23.252Z,5.57
2023-03-16T18:59:51.125Z,4.45
2023-03-16T19:02:39.860Z,4.68
2023-03-16T19:05:14.340Z,7.45
2023-03-16T19:07:44.444Z,2.80
2023-03-16T19:10:20.269Z,2.92
2023-03-16T19:12:47.706Z,2.38
2023-03-16T19:15:35.557Z,2.67
2023-03-16T19:18:02.853Z,2.60
2023-03-16T19:20:32.465Z,2.67
2023-03-16T19:23:31.013Z,1.75
2023-03-16T19:25:58.480Z,2.92
2023-03-16T19:28:34.186Z,1.42
2023-03-16T19:31:15.433Z,1.85
2023-03-16T19:33:42.575Z,2.05
2023-03-16T19:36:25.202Z,2.92
2023-03-16T19:38:53.155Z,3.00
2023-03-16T19:41:29.480Z,2.72
2023-03-16T19:43:59.300Z,3.45
2023-03-16T19:46:28.013Z,4.50
2023-03-16T19:48:55.973Z,3.55
2023-03-16T19:51:25.481Z,4.15
2023-03-16T19:53:53.164Z,3.72
2023-03-16T19:56:21.813Z,2.38
2023-03-16T19:58:53.663Z,2.22
2023-03-16T20:01:24.541Z,2.28
2023-03-16T20:03:53.018Z,2.07
2023-03-16T20:06:23.306Z,1.55
2023-03-16T20:08:51.274Z,2.00
2023-03-16T20:11:24.713Z,2.63
2023-03-16T20:13:51.914Z,2.30
2023-03-16T20:16:26.711Z,1.52
2023-03-16T20:18:56.787Z,1.60
2023-03-16T20:21:24.609Z,1.67
2023-03-16T20:23:52.796Z,1.50
2023-03-16T20:26:22.954Z,1.27
2023-03-16T20:28:50.924Z,1.67
2023-03-16T20:31:21.211Z,1.67
2023-03-16T20:33:49.713Z,1.50
2023-03-16T20:36:17.420Z,2.47
2023-03-16T20:38:44.970Z,1.27
2023-03-16T20:41:16.383Z,1.38
2023-03-16T20:43:44.185Z,1.58
2023-03-16T20:46:18.681Z,1.30
2023-03-16T20:48:47.195Z,1.58
2023-03-16T20:51:15.437Z,1.23
2023-03-16T20:53:44.663Z,1.10
2023-03-16T20:56:21.044Z,1.33
2023-03-16T20:58:50.117Z,1.67
2023-03-16T21:01:21.695Z,1.33
2023-03-16T21:03:55.234Z,1.70
2023-03-16T21:06:30.334Z,1.60
2023-03-16T21:08:59.893Z,1.73
2023-03-16T21:11:37.301Z,2.20
2023-03-16T21:14:07.132Z,2.20
2023-03-16T21:16:34.917Z,1.65
2023-03-16T21:19:02.102Z,1.73
2023-03-16T21:21:29.121Z,2.10
2023-03-16T21:23:56.968Z,3.08
2023-03-16T21:26:33.997Z,2.90
2023-03-16T21:29:06.661Z,1.52
2023-03-16T21:31:34.352Z,1.75
2023-03-16T21:34:01.904Z,2.08
2023-03-16T21:36:29.037Z,2.85
2023-03-16T21:38:56.450Z,2.30
2023-03-16T21:41:23.614Z,1.50
2023-03-16T21:43:51.131Z,1.60
2023-03-16T21:46:20.742Z,1.55
2023-03-16T21:48:50.839Z,2.13
2023-03-16T21:51:20.874Z,3.00
2023-03-16T21:53:49.316Z,2.28
2023-03-16T21:56:22.950Z,1.80
2023-03-16T21:58:51.026Z,2.47
2023-03-16T22:01:23.124Z,2.30
2023-03-16T22:03:55.541Z,2.30
2023-03-16T22:06:24.583Z,1.60
2023-03-16T22:08:52.310Z,2.05
2023-03-16T22:11:23.916Z,2.05
2023-03-16T22:13:51.559Z,1.73
2023-03-16T22:16:21.792Z,2.00
2023-03-16T22:18:51.939Z,1.77
2023-03-16T22:21:35.153Z,1.83
2023-03-16T22:24:05.374Z,2.15
2023-03-16T22:26:33.226Z,1.50
2023-03-16T22:29:01.883Z,2.17
2023-03-16T22:31:29.021Z,1.88
2023-03-16T22:33:56.531Z,1.52
2023-03-16T22:36:24.556Z,2.28
2023-03-16T22:39:17.798Z,1.67
2023-03-16T22:41:44.826Z,2.03
2023-03-16T22:44:22.311Z,1.80
2023-03-16T22:46:50.835Z,1.75
2023-03-16T22:49:24.730Z,2.15
2023-03-16T22:51:54.609Z,2.22
2023-03-16T22:54:26.017Z,1.50
2023-03-16T22:56:53.464Z,2.08
2023-03-16T22:59:23.357Z,1.67
2023-03-16T23:01:50.522Z,1.70
2023-03-16T23:04:32.235Z,2.05
2023-03-16T23:06:59.493Z,2.63
2023-03-16T23:09:26.718Z,2.00
2023-03-16T23:11:55.015Z,1.70
2023-03-16T23:14:29.310Z,2.05
2023-03-16T23:16:57.101Z,2.00
2023-03-16T23:19:30.021Z,2.10
2023-03-16T23:22:00.742Z,1.92
2023-03-16T23:24:27.995Z,1.90
2023-03-16T23:26:55.900Z,2.13
2023-03-16T23:29:23.653Z,2.85
2023-03-16T23:31:51.573Z,2.10
2023-03-16T23:34:21.621Z,2.00
2023-03-16T23:36:49.778Z,2.22
2023-03-16T23:39:17.288Z,1.85
2023-03-16T23:41:47.798Z,2.13
2023-03-16T23:44:23.303Z,2.33
2023-03-16T23:46:51.392Z,2.63
2023-03-16T23:49:33.190Z,1.85
2023-03-16T23:54:31.462Z,2.00
2023-03-16T23:56:59.013Z,1.98
2023-03-16T23:59:27.359Z,2.10
